Terminal Aerodrome Forecast
Issued by NWS

Current Version | Previous Version | Text Only | Print | Product List | Glossary On
Versions: 1 2 3 4 5 6 7 8 9 10 11 12
000
FTUS44 KEPZ 251720
TAFDMN
TAF
KDMN 251720Z 2518/2618 18009KT P6SM FEW250
     FM252000 24016G26KT P6SM BKN250
     FM260200 27011KT P6SM SCT250
     FM261700 27015G25KT P6SM SKC=

USA.gov is the U.S. government's official web portal to all federal, state and local government web resources and services.